sensor_id;sensor_type;location;lat;lon;timestamp;P1;durP1;ratioP1;P2;durP2;ratioP2
21360;SDS011;10839;43.206;23.550;2022-09-09T00:00:19;6.30;;;4.35;;
21360;SDS011;10839;43.206;23.550;2022-09-09T00:03:11;5.97;;;4.20;;
21360;SDS011;10839;43.206;23.550;2022-09-09T00:08:18;7.38;;;3.97;;
21360;SDS011;10839;43.206;23.550;2022-09-09T00:10:53;5.05;;;4.28;;
21360;SDS011;10839;43.206;23.550;2022-09-09T00:13:46;5.10;;;4.03;;
21360;SDS011;10839;43.206;23.550;2022-09-09T00:16:27;5.07;;;4.47;;
21360;SDS011;10839;43.206;23.550;2022-09-09T00:21:41;5.82;;;4.10;;
21360;SDS011;10839;43.206;23.550;2022-09-09T00:25:02;5.97;;;4.20;;
21360;SDS011;10839;43.206;23.550;2022-09-09T00:27:31;6.70;;;3.85;;
21360;SDS011;10839;43.206;23.550;2022-09-09T00:32:43;5.38;;;4.55;;
21360;SDS011;10839;43.206;23.550;2022-09-09T00:37:35;6.53;;;3.92;;
21360;SDS011;10839;43.206;23.550;2022-09-09T00:40:07;5.55;;;3.92;;
21360;SDS011;10839;43.206;23.550;2022-09-09T00:43:20;4.55;;;4.03;;
21360;SDS011;10839;43.206;23.550;2022-09-09T00:51:28;6.80;;;4.82;;
21360;SDS011;10839;43.206;23.550;2022-09-09T00:57:04;6.47;;;4.47;;
21360;SDS011;10839;43.206;23.550;2022-09-09T00:59:35;5.75;;;4.72;;
21360;SDS011;10839;43.206;23.550;2022-09-09T01:02:18;7.82;;;5.38;;
21360;SDS011;10839;43.206;23.550;2022-09-09T01:04:53;5.82;;;5.05;;
21360;SDS011;10839;43.206;23.550;2022-09-09T01:07:21;5.95;;;4.60;;
21360;SDS011;10839;43.206;23.550;2022-09-09T01:10:07;5.50;;;4.90;;
21360;SDS011;10839;43.206;23.550;2022-09-09T01:12:46;7.00;;;5.00;;
21360;SDS011;10839;43.206;23.550;2022-09-09T01:15:22;5.28;;;4.75;;
21360;SDS011;10839;43.206;23.550;2022-09-09T01:20:54;6.60;;;5.18;;
21360;SDS011;10839;43.206;23.550;2022-09-09T01:23:37;6.88;;;5.25;;
21360;SDS011;10839;43.206;23.550;2022-09-09T01:26:39;6.85;;;4.95;;
21360;SDS011;10839;43.206;23.550;2022-09-09T01:29:16;5.18;;;4.68;;
21360;SDS011;10839;43.206;23.550;2022-09-09T01:31:55;6.53;;;5.38;;
21360;SDS011;10839;43.206;23.550;2022-09-09T01:34:22;7.63;;;4.93;;
21360;SDS011;10839;43.206;23.550;2022-09-09T01:37:09;7.53;;;5.45;;
21360;SDS011;10839;43.206;23.550;2022-09-09T01:39:39;5.95;;;5.28;;
21360;SDS011;10839;43.206;23.550;2022-09-09T01:42:12;6.47;;;4.95;;
21360;SDS011;10839;43.206;23.550;2022-09-09T01:44:41;7.10;;;4.93;;
21360;SDS011;10839;43.206;23.550;2022-09-09T01:47:07;7.75;;;5.35;;
21360;SDS011;10839;43.206;23.550;2022-09-09T01:49:42;8.02;;;4.78;;
21360;SDS011;10839;43.206;23.550;2022-09-09T01:52:24;7.00;;;5.25;;
21360;SDS011;10839;43.206;23.550;2022-09-09T01:54:50;6.72;;;5.05;;
21360;SDS011;10839;43.206;23.550;2022-09-09T01:57:22;7.38;;;5.07;;
21360;SDS011;10839;43.206;23.550;2022-09-09T01:59:59;5.60;;;5.10;;
21360;SDS011;10839;43.206;23.550;2022-09-09T02:02:53;6.70;;;4.75;;
21360;SDS011;10839;43.206;23.550;2022-09-09T02:08:40;42.40;;;7.53;;
21360;SDS011;10839;43.206;23.550;2022-09-09T02:11:12;7.50;;;5.03;;
21360;SDS011;10839;43.206;23.550;2022-09-09T02:16:49;8.32;;;5.43;;
21360;SDS011;10839;43.206;23.550;2022-09-09T02:19:46;6.82;;;5.20;;
21360;SDS011;10839;43.206;23.550;2022-09-09T02:22:29;7.72;;;4.97;;
21360;SDS011;10839;43.206;23.550;2022-09-09T02:25:01;5.97;;;5.00;;
21360;SDS011;10839;43.206;23.550;2022-09-09T02:27:30;6.22;;;5.30;;
21360;SDS011;10839;43.206;23.550;2022-09-09T02:29:56;7.00;;;5.10;;
21360;SDS011;10839;43.206;23.550;2022-09-09T02:32:41;11.48;;;5.53;;
21360;SDS011;10839;43.206;23.550;2022-09-09T02:35:12;7.30;;;4.70;;
21360;SDS011;10839;43.206;23.550;2022-09-09T02:37:42;6.28;;;4.90;;
21360;SDS011;10839;43.206;23.550;2022-09-09T02:40:15;5.88;;;4.43;;
21360;SDS011;10839;43.206;23.550;2022-09-09T02:42:47;6.30;;;4.50;;
21360;SDS011;10839;43.206;23.550;2022-09-09T02:45:16;7.47;;;5.30;;
21360;SDS011;10839;43.206;23.550;2022-09-09T02:50:29;7.05;;;5.10;;
21360;SDS011;10839;43.206;23.550;2022-09-09T02:55:57;7.15;;;4.95;;
21360;SDS011;10839;43.206;23.550;2022-09-09T02:58:33;5.32;;;4.82;;
21360;SDS011;10839;43.206;23.550;2022-09-09T03:01:03;7.60;;;5.35;;
21360;SDS011;10839;43.206;23.550;2022-09-09T03:03:30;6.63;;;4.60;;
21360;SDS011;10839;43.206;23.550;2022-09-09T03:05:59;7.50;;;4.90;;
21360;SDS011;10839;43.206;23.550;2022-09-09T03:08:27;5.50;;;4.70;;
21360;SDS011;10839;43.206;23.550;2022-09-09T03:10:54;5.47;;;4.70;;
21360;SDS011;10839;43.206;23.550;2022-09-09T03:13:25;6.20;;;4.43;;
21360;SDS011;10839;43.206;23.550;2022-09-09T03:15:52;6.03;;;4.80;;
21360;SDS011;10839;43.206;23.550;2022-09-09T03:18:20;8.27;;;4.93;;
21360;SDS011;10839;43.206;23.550;2022-09-09T03:20:50;8.65;;;4.95;;
21360;SDS011;10839;43.206;23.550;2022-09-09T03:23:17;9.40;;;4.93;;
21360;SDS011;10839;43.206;23.550;2022-09-09T03:25:51;9.07;;;5.80;;
21360;SDS011;10839;43.206;23.550;2022-09-09T03:28:27;7.10;;;4.85;;
21360;SDS011;10839;43.206;23.550;2022-09-09T03:31:02;6.75;;;4.72;;
21360;SDS011;10839;43.206;23.550;2022-09-09T03:33:36;5.90;;;4.88;;
21360;SDS011;10839;43.206;23.550;2022-09-09T03:36:05;6.30;;;5.22;;
21360;SDS011;10839;43.206;23.550;2022-09-09T03:38:34;5.85;;;4.68;;
21360;SDS011;10839;43.206;23.550;2022-09-09T03:41:00;9.18;;;5.40;;
21360;SDS011;10839;43.206;23.550;2022-09-09T03:43:28;6.30;;;5.00;;
21360;SDS011;10839;43.206;23.550;2022-09-09T03:45:55;5.50;;;5.00;;
21360;SDS011;10839;43.206;23.550;2022-09-09T03:48:26;5.63;;;5.00;;
21360;SDS011;10839;43.206;23.550;2022-09-09T03:50:54;7.55;;;5.38;;
21360;SDS011;10839;43.206;23.550;2022-09-09T03:53:27;6.88;;;5.28;;
21360;SDS011;10839;43.206;23.550;2022-09-09T03:55:56;6.30;;;4.85;;
21360;SDS011;10839;43.206;23.550;2022-09-09T03:58:27;7.95;;;5.28;;
21360;SDS011;10839;43.206;23.550;2022-09-09T04:01:01;6.50;;;4.95;;
21360;SDS011;10839;43.206;23.550;2022-09-09T04:03:29;8.68;;;5.20;;
21360;SDS011;10839;43.206;23.550;2022-09-09T04:05:58;6.57;;;5.60;;
21360;SDS011;10839;43.206;23.550;2022-09-09T04:08:29;6.25;;;5.50;;
21360;SDS011;10839;43.206;23.550;2022-09-09T04:10:59;8.98;;;5.47;;
21360;SDS011;10839;43.206;23.550;2022-09-09T04:13:28;15.05;;;9.48;;
21360;SDS011;10839;43.206;23.550;2022-09-09T04:15:57;9.57;;;5.85;;
21360;SDS011;10839;43.206;23.550;2022-09-09T04:18:24;8.82;;;7.20;;
21360;SDS011;10839;43.206;23.550;2022-09-09T04:20:53;7.95;;;5.80;;
21360;SDS011;10839;43.206;23.550;2022-09-09T04:23:25;7.95;;;5.28;;
21360;SDS011;10839;43.206;23.550;2022-09-09T04:25:57;8.27;;;5.40;;
21360;SDS011;10839;43.206;23.550;2022-09-09T04:28:27;8.52;;;5.53;;
21360;SDS011;10839;43.206;23.550;2022-09-09T04:30:56;7.80;;;5.68;;
21360;SDS011;10839;43.206;23.550;2022-09-09T04:35:57;8.88;;;4.05;;
21360;SDS011;10839;43.206;23.550;2022-09-09T04:38:25;4.18;;;3.78;;
21360;SDS011;10839;43.206;23.550;2022-09-09T04:40:53;7.15;;;4.57;;
21360;SDS011;10839;43.206;23.550;2022-09-09T04:43:20;7.10;;;4.68;;
21360;SDS011;10839;43.206;23.550;2022-09-09T04:45:49;5.03;;;3.67;;
21360;SDS011;10839;43.206;23.550;2022-09-09T04:50:59;5.22;;;3.90;;
21360;SDS011;10839;43.206;23.550;2022-09-09T04:53:33;6.03;;;4.25;;
21360;SDS011;10839;43.206;23.550;2022-09-09T04:56:04;10.20;;;5.25;;
21360;SDS011;10839;43.206;23.550;2022-09-09T04:58:38;4.78;;;3.92;;
21360;SDS011;10839;43.206;23.550;2022-09-09T05:03:43;3.88;;;3.50;;
21360;SDS011;10839;43.206;23.550;2022-09-09T05:06:17;4.60;;;3.80;;
21360;SDS011;10839;43.206;23.550;2022-09-09T05:08:48;4.60;;;3.40;;
21360;SDS011;10839;43.206;23.550;2022-09-09T05:11:24;6.13;;;3.65;;
21360;SDS011;10839;43.206;23.550;2022-09-09T05:13:58;3.53;;;3.20;;
21360;SDS011;10839;43.206;23.550;2022-09-09T05:16:24;4.30;;;3.90;;
21360;SDS011;10839;43.206;23.550;2022-09-09T05:18:52;5.60;;;3.58;;
21360;SDS011;10839;43.206;23.550;2022-09-09T05:21:20;4.13;;;3.40;;
21360;SDS011;10839;43.206;23.550;2022-09-09T05:23:48;3.90;;;3.50;;
21360;SDS011;10839;43.206;23.550;2022-09-09T05:26:19;5.18;;;4.22;;
21360;SDS011;10839;43.206;23.550;2022-09-09T05:28:49;6.38;;;3.75;;
21360;SDS011;10839;43.206;23.550;2022-09-09T05:31:17;5.35;;;3.78;;
21360;SDS011;10839;43.206;23.550;2022-09-09T05:33:48;4.13;;;3.70;;
21360;SDS011;10839;43.206;23.550;2022-09-09T05:36:18;6.70;;;3.83;;
21360;SDS011;10839;43.206;23.550;2022-09-09T05:38:48;3.58;;;3.25;;
21360;SDS011;10839;43.206;23.550;2022-09-09T05:41:15;4.28;;;3.40;;
21360;SDS011;10839;43.206;23.550;2022-09-09T05:43:44;4.07;;;3.10;;
21360;SDS011;10839;43.206;23.550;2022-09-09T05:46:13;6.60;;;3.15;;
21360;SDS011;10839;43.206;23.550;2022-09-09T05:48:42;5.60;;;3.15;;
21360;SDS011;10839;43.206;23.550;2022-09-09T05:51:10;3.83;;;3.45;;
21360;SDS011;10839;43.206;23.550;2022-09-09T05:53:38;5.18;;;3.67;;
21360;SDS011;10839;43.206;23.550;2022-09-09T05:56:05;4.00;;;3.28;;
21360;SDS011;10839;43.206;23.550;2022-09-09T05:58:34;5.95;;;3.45;;
21360;SDS011;10839;43.206;23.550;2022-09-09T06:01:03;7.07;;;3.28;;
21360;SDS011;10839;43.206;23.550;2022-09-09T06:03:31;4.13;;;3.03;;
21360;SDS011;10839;43.206;23.550;2022-09-09T06:05:58;4.28;;;3.38;;
21360;SDS011;10839;43.206;23.550;2022-09-09T06:08:27;5.45;;;3.33;;
21360;SDS011;10839;43.206;23.550;2022-09-09T06:10:53;3.20;;;2.90;;
21360;SDS011;10839;43.206;23.550;2022-09-09T06:13:19;3.45;;;2.97;;
21360;SDS011;10839;43.206;23.550;2022-09-09T06:15:51;3.92;;;3.20;;
21360;SDS011;10839;43.206;23.550;2022-09-09T06:18:19;3.70;;;3.35;;
21360;SDS011;10839;43.206;23.550;2022-09-09T06:20:58;3.53;;;3.20;;
21360;SDS011;10839;43.206;23.550;2022-09-09T06:23:27;7.38;;;3.00;;
21360;SDS011;10839;43.206;23.550;2022-09-09T06:26:07;4.70;;;3.50;;
21360;SDS011;10839;43.206;23.550;2022-09-09T06:28:36;8.27;;;4.75;;
21360;SDS011;10839;43.206;23.550;2022-09-09T06:31:03;5.00;;;2.90;;
21360;SDS011;10839;43.206;23.550;2022-09-09T06:33:32;3.22;;;2.85;;
21360;SDS011;10839;43.206;23.550;2022-09-09T06:36:05;4.25;;;3.38;;
21360;SDS011;10839;43.206;23.550;2022-09-09T06:38:31;4.43;;;3.03;;
21360;SDS011;10839;43.206;23.550;2022-09-09T06:40:58;3.42;;;2.83;;
21360;SDS011;10839;43.206;23.550;2022-09-09T06:43:26;7.05;;;3.67;;
21360;SDS011;10839;43.206;23.550;2022-09-09T06:46:01;3.67;;;3.25;;
21360;SDS011;10839;43.206;23.550;2022-09-09T06:48:32;5.63;;;3.38;;
21360;SDS011;10839;43.206;23.550;2022-09-09T06:51:06;6.82;;;3.35;;
21360;SDS011;10839;43.206;23.550;2022-09-09T06:53:35;7.05;;;4.30;;
21360;SDS011;10839;43.206;23.550;2022-09-09T06:56:25;6.40;;;4.32;;
21360;SDS011;10839;43.206;23.550;2022-09-09T06:58:54;8.38;;;4.68;;
21360;SDS011;10839;43.206;23.550;2022-09-09T07:01:26;9.70;;;4.80;;
21360;SDS011;10839;43.206;23.550;2022-09-09T07:04:00;16.40;;;5.30;;
21360;SDS011;10839;43.206;23.550;2022-09-09T07:06:33;7.18;;;4.55;;
21360;SDS011;10839;43.206;23.550;2022-09-09T07:09:05;6.15;;;3.92;;
21360;SDS011;10839;43.206;23.550;2022-09-09T07:11:37;3.42;;;3.10;;
21360;SDS011;10839;43.206;23.550;2022-09-09T07:14:08;3.55;;;2.70;;
21360;SDS011;10839;43.206;23.550;2022-09-09T07:16:38;6.70;;;2.88;;
21360;SDS011;10839;43.206;23.550;2022-09-09T07:19:04;4.38;;;3.50;;
21360;SDS011;10839;43.206;23.550;2022-09-09T07:21:30;4.95;;;2.92;;
21360;SDS011;10839;43.206;23.550;2022-09-09T07:23:58;4.15;;;3.33;;
21360;SDS011;10839;43.206;23.550;2022-09-09T07:26:26;4.85;;;3.60;;
21360;SDS011;10839;43.206;23.550;2022-09-09T07:28:56;4.50;;;3.20;;
21360;SDS011;10839;43.206;23.550;2022-09-09T07:31:24;4.72;;;3.53;;
21360;SDS011;10839;43.206;23.550;2022-09-09T07:33:58;4.40;;;2.80;;
21360;SDS011;10839;43.206;23.550;2022-09-09T07:36:26;7.57;;;3.50;;
21360;SDS011;10839;43.206;23.550;2022-09-09T07:39:03;6.80;;;3.58;;
21360;SDS011;10839;43.206;23.550;2022-09-09T07:41:37;4.60;;;3.53;;
21360;SDS011;10839;43.206;23.550;2022-09-09T07:44:11;4.72;;;3.58;;
21360;SDS011;10839;43.206;23.550;2022-09-09T07:46:40;13.15;;;4.80;;
21360;SDS011;10839;43.206;23.550;2022-09-09T07:49:09;13.70;;;5.43;;
21360;SDS011;10839;43.206;23.550;2022-09-09T07:51:38;8.90;;;4.78;;
21360;SDS011;10839;43.206;23.550;2022-09-09T07:54:08;14.38;;;7.28;;
21360;SDS011;10839;43.206;23.550;2022-09-09T07:56:39;15.35;;;5.78;;
21360;SDS011;10839;43.206;23.550;2022-09-09T07:59:07;8.70;;;4.82;;
21360;SDS011;10839;43.206;23.550;2022-09-09T08:01:36;10.55;;;5.00;;
21360;SDS011;10839;43.206;23.550;2022-09-09T08:04:07;21.65;;;6.13;;
21360;SDS011;10839;43.206;23.550;2022-09-09T08:06:44;9.93;;;5.40;;
21360;SDS011;10839;43.206;23.550;2022-09-09T08:09:18;13.15;;;5.80;;
21360;SDS011;10839;43.206;23.550;2022-09-09T08:11:46;7.28;;;5.18;;
21360;SDS011;10839;43.206;23.550;2022-09-09T08:14:13;10.07;;;8.00;;
21360;SDS011;10839;43.206;23.550;2022-09-09T08:16:41;20.13;;;16.00;;
21360;SDS011;10839;43.206;23.550;2022-09-09T08:19:10;26.48;;;13.48;;
21360;SDS011;10839;43.206;23.550;2022-09-09T08:21:38;16.55;;;8.18;;
21360;SDS011;10839;43.206;23.550;2022-09-09T08:24:07;15.40;;;7.63;;
21360;SDS011;10839;43.206;23.550;2022-09-09T08:26:37;11.77;;;7.05;;
21360;SDS011;10839;43.206;23.550;2022-09-09T08:29:06;10.10;;;7.18;;
21360;SDS011;10839;43.206;23.550;2022-09-09T08:31:34;22.20;;;10.30;;
21360;SDS011;10839;43.206;23.550;2022-09-09T08:34:04;27.65;;;14.63;;
21360;SDS011;10839;43.206;23.550;2022-09-09T08:36:34;11.00;;;8.07;;
21360;SDS011;10839;43.206;23.550;2022-09-09T08:39:03;11.05;;;8.23;;
21360;SDS011;10839;43.206;23.550;2022-09-09T08:44:10;40.75;;;26.83;;
21360;SDS011;10839;43.206;23.550;2022-09-09T08:58:23;8.27;;;5.97;;
21360;SDS011;10839;43.206;23.550;2022-09-09T09:12:15;7.43;;;5.00;;
21360;SDS011;10839;43.206;23.550;2022-09-09T09:14:45;6.65;;;5.45;;
21360;SDS011;10839;43.206;23.550;2022-09-09T09:17:20;8.52;;;5.63;;
21360;SDS011;10839;43.206;23.550;2022-09-09T09:19:49;5.90;;;5.13;;
21360;SDS011;10839;43.206;23.550;2022-09-09T09:24:53;8.98;;;5.65;;
21360;SDS011;10839;43.206;23.550;2022-09-09T09:27:33;18.92;;;7.78;;
21360;SDS011;10839;43.206;23.550;2022-09-09T09:30:12;11.73;;;5.80;;
21360;SDS011;10839;43.206;23.550;2022-09-09T09:32:43;8.77;;;5.32;;
21360;SDS011;10839;43.206;23.550;2022-09-09T09:35:31;8.43;;;5.30;;
21360;SDS011;10839;43.206;23.550;2022-09-09T09:37:57;14.35;;;6.22;;
21360;SDS011;10839;43.206;23.550;2022-09-09T09:40:26;8.52;;;5.82;;
21360;SDS011;10839;43.206;23.550;2022-09-09T09:42:53;13.90;;;6.32;;
21360;SDS011;10839;43.206;23.550;2022-09-09T09:45:32;9.25;;;6.32;;
21360;SDS011;10839;43.206;23.550;2022-09-09T09:48:04;12.27;;;5.80;;
21360;SDS011;10839;43.206;23.550;2022-09-09T09:50:33;15.02;;;6.05;;
21360;SDS011;10839;43.206;23.550;2022-09-09T09:53:04;9.65;;;5.40;;
21360;SDS011;10839;43.206;23.550;2022-09-09T09:55:48;9.10;;;5.55;;
21360;SDS011;10839;43.206;23.550;2022-09-09T09:58:18;14.57;;;8.13;;
21360;SDS011;10839;43.206;23.550;2022-09-09T10:00:49;14.30;;;8.52;;
21360;SDS011;10839;43.206;23.550;2022-09-09T10:03:23;20.63;;;15.35;;
21360;SDS011;10839;43.206;23.550;2022-09-09T10:05:53;24.85;;;13.98;;
21360;SDS011;10839;43.206;23.550;2022-09-09T10:08:21;23.05;;;8.00;;
21360;SDS011;10839;43.206;23.550;2022-09-09T10:13:42;14.50;;;10.60;;
21360;SDS011;10839;43.206;23.550;2022-09-09T10:19:00;11.07;;;5.63;;
21360;SDS011;10839;43.206;23.550;2022-09-09T10:24:44;11.65;;;6.22;;
21360;SDS011;10839;43.206;23.550;2022-09-09T10:27:33;9.43;;;6.57;;
21360;SDS011;10839;43.206;23.550;2022-09-09T10:30:19;10.15;;;6.20;;
21360;SDS011;10839;43.206;23.550;2022-09-09T10:35:25;10.52;;;5.90;;
21360;SDS011;10839;43.206;23.550;2022-09-09T10:40:33;9.45;;;6.50;;
21360;SDS011;10839;43.206;23.550;2022-09-09T10:43:11;8.38;;;6.25;;
21360;SDS011;10839;43.206;23.550;2022-09-09T10:52:24;9.32;;;6.70;;
21360;SDS011;10839;43.206;23.550;2022-09-09T11:00:06;8.23;;;6.90;;
21360;SDS011;10839;43.206;23.550;2022-09-09T11:02:48;9.48;;;6.45;;
21360;SDS011;10839;43.206;23.550;2022-09-09T11:05:27;7.90;;;6.30;;
21360;SDS011;10839;43.206;23.550;2022-09-09T11:07:56;10.45;;;7.05;;
21360;SDS011;10839;43.206;23.550;2022-09-09T11:21:49;10.32;;;8.07;;
21360;SDS011;10839;43.206;23.550;2022-09-09T11:27:19;8.20;;;6.60;;
21360;SDS011;10839;43.206;23.550;2022-09-09T11:30:06;16.27;;;8.10;;
21360;SDS011;10839;43.206;23.550;2022-09-09T11:35:45;10.15;;;7.63;;
21360;SDS011;10839;43.206;23.550;2022-09-09T11:41:12;10.63;;;7.50;;
21360;SDS011;10839;43.206;23.550;2022-09-09T11:46:12;12.85;;;9.00;;
21360;SDS011;10839;43.206;23.550;2022-09-09T11:48:44;16.10;;;12.50;;
21360;SDS011;10839;43.206;23.550;2022-09-09T11:51:13;21.48;;;15.63;;
21360;SDS011;10839;43.206;23.550;2022-09-09T11:53:53;23.15;;;16.67;;
21360;SDS011;10839;43.206;23.550;2022-09-09T11:56:42;19.08;;;13.73;;
21360;SDS011;10839;43.206;23.550;2022-09-09T11:59:20;24.98;;;15.02;;
21360;SDS011;10839;43.206;23.550;2022-09-09T12:02:29;26.17;;;15.50;;
21360;SDS011;10839;43.206;23.550;2022-09-09T12:07:38;23.63;;;13.63;;
21360;SDS011;10839;43.206;23.550;2022-09-09T12:10:23;13.45;;;8.18;;
21360;SDS011;10839;43.206;23.550;2022-09-09T12:12:54;14.15;;;9.25;;
21360;SDS011;10839;43.206;23.550;2022-09-09T12:15:28;9.88;;;7.88;;
21360;SDS011;10839;43.206;23.550;2022-09-09T12:17:55;12.43;;;8.27;;
21360;SDS011;10839;43.206;23.550;2022-09-09T12:20:31;9.38;;;8.02;;
21360;SDS011;10839;43.206;23.550;2022-09-09T12:28:17;16.95;;;10.07;;
21360;SDS011;10839;43.206;23.550;2022-09-09T12:30:56;14.27;;;9.40;;
21360;SDS011;10839;43.206;23.550;2022-09-09T12:33:33;16.15;;;8.65;;
21360;SDS011;10839;43.206;23.550;2022-09-09T12:36:01;12.90;;;9.30;;
21360;SDS011;10839;43.206;23.550;2022-09-09T12:38:38;14.35;;;8.75;;
21360;SDS011;10839;43.206;23.550;2022-09-09T12:41:15;10.30;;;8.75;;
21360;SDS011;10839;43.206;23.550;2022-09-09T12:44:04;20.67;;;10.02;;
21360;SDS011;10839;43.206;23.550;2022-09-09T12:46:34;15.70;;;9.85;;
21360;SDS011;10839;43.206;23.550;2022-09-09T12:49:26;16.80;;;9.93;;
21360;SDS011;10839;43.206;23.550;2022-09-09T12:52:04;14.40;;;9.88;;
21360;SDS011;10839;43.206;23.550;2022-09-09T12:54:42;17.30;;;9.68;;
21360;SDS011;10839;43.206;23.550;2022-09-09T12:57:16;15.38;;;9.63;;
21360;SDS011;10839;43.206;23.550;2022-09-09T12:59:43;14.38;;;9.90;;
21360;SDS011;10839;43.206;23.550;2022-09-09T13:04:45;17.48;;;10.48;;
21360;SDS011;10839;43.206;23.550;2022-09-09T13:07:12;13.88;;;9.48;;
21360;SDS011;10839;43.206;23.550;2022-09-09T13:09:39;16.92;;;9.20;;
21360;SDS011;10839;43.206;23.550;2022-09-09T13:12:06;12.98;;;8.80;;
21360;SDS011;10839;43.206;23.550;2022-09-09T13:14:42;11.63;;;7.70;;
21360;SDS011;10839;43.206;23.550;2022-09-09T13:17:17;14.23;;;10.55;;
21360;SDS011;10839;43.206;23.550;2022-09-09T13:19:48;10.02;;;7.63;;
21360;SDS011;10839;43.206;23.550;2022-09-09T13:25:00;10.52;;;7.60;;
21360;SDS011;10839;43.206;23.550;2022-09-09T13:27:32;10.05;;;7.22;;
21360;SDS011;10839;43.206;23.550;2022-09-09T13:35:55;9.80;;;7.07;;
21360;SDS011;10839;43.206;23.550;2022-09-09T13:38:24;20.23;;;7.45;;
21360;SDS011;10839;43.206;23.550;2022-09-09T13:40:58;9.25;;;7.18;;
21360;SDS011;10839;43.206;23.550;2022-09-09T13:43:27;8.88;;;7.10;;
21360;SDS011;10839;43.206;23.550;2022-09-09T13:45:55;12.70;;;7.97;;
21360;SDS011;10839;43.206;23.550;2022-09-09T13:48:24;7.63;;;6.93;;
21360;SDS011;10839;43.206;23.550;2022-09-09T13:50:58;10.25;;;6.72;;
21360;SDS011;10839;43.206;23.550;2022-09-09T13:53:32;9.30;;;7.18;;
21360;SDS011;10839;43.206;23.550;2022-09-09T13:55:58;14.45;;;7.40;;
21360;SDS011;10839;43.206;23.550;2022-09-09T13:58:25;9.52;;;7.45;;
21360;SDS011;10839;43.206;23.550;2022-09-09T14:00:52;12.80;;;8.48;;
21360;SDS011;10839;43.206;23.550;2022-09-09T14:03:18;13.80;;;8.55;;
21360;SDS011;10839;43.206;23.550;2022-09-09T14:05:45;11.10;;;7.45;;
21360;SDS011;10839;43.206;23.550;2022-09-09T14:08:16;10.45;;;7.68;;
21360;SDS011;10839;43.206;23.550;2022-09-09T14:10:47;10.13;;;7.68;;
21360;SDS011;10839;43.206;23.550;2022-09-09T14:13:13;11.95;;;7.55;;
21360;SDS011;10839;43.206;23.550;2022-09-09T14:15:40;15.05;;;7.53;;
21360;SDS011;10839;43.206;23.550;2022-09-09T14:18:06;9.15;;;7.57;;
21360;SDS011;10839;43.206;23.550;2022-09-09T14:20:35;11.90;;;7.38;;
21360;SDS011;10839;43.206;23.550;2022-09-09T14:23:00;20.88;;;14.45;;
21360;SDS011;10839;43.206;23.550;2022-09-09T14:25:26;15.20;;;11.30;;
21360;SDS011;10839;43.206;23.550;2022-09-09T14:27:52;17.95;;;14.05;;
21360;SDS011;10839;43.206;23.550;2022-09-09T14:30:19;12.15;;;8.77;;
21360;SDS011;10839;43.206;23.550;2022-09-09T14:32:44;9.18;;;8.15;;
21360;SDS011;10839;43.206;23.550;2022-09-09T14:35:10;10.43;;;7.47;;
21360;SDS011;10839;43.206;23.550;2022-09-09T14:37:36;9.55;;;7.30;;
21360;SDS011;10839;43.206;23.550;2022-09-09T14:40:04;10.57;;;7.50;;
21360;SDS011;10839;43.206;23.550;2022-09-09T14:42:31;10.10;;;7.53;;
21360;SDS011;10839;43.206;23.550;2022-09-09T14:44:57;11.48;;;7.20;;
21360;SDS011;10839;43.206;23.550;2022-09-09T14:47:22;8.40;;;6.90;;
21360;SDS011;10839;43.206;23.550;2022-09-09T14:49:49;12.45;;;6.93;;
21360;SDS011;10839;43.206;23.550;2022-09-09T14:52:15;8.43;;;5.63;;
21360;SDS011;10839;43.206;23.550;2022-09-09T14:54:41;8.30;;;4.32;;
21360;SDS011;10839;43.206;23.550;2022-09-09T14:57:07;8.30;;;4.85;;
21360;SDS011;10839;43.206;23.550;2022-09-09T14:59:33;8.52;;;4.43;;
21360;SDS011;10839;43.206;23.550;2022-09-09T15:01:59;8.70;;;4.40;;
21360;SDS011;10839;43.206;23.550;2022-09-09T15:04:29;7.72;;;4.70;;
21360;SDS011;10839;43.206;23.550;2022-09-09T15:06:55;6.90;;;4.57;;
21360;SDS011;10839;43.206;23.550;2022-09-09T15:09:21;7.13;;;4.72;;
21360;SDS011;10839;43.206;23.550;2022-09-09T15:11:48;8.90;;;5.05;;
21360;SDS011;10839;43.206;23.550;2022-09-09T15:14:14;8.75;;;5.18;;
21360;SDS011;10839;43.206;23.550;2022-09-09T15:16:40;7.55;;;4.95;;
21360;SDS011;10839;43.206;23.550;2022-09-09T15:19:06;9.10;;;5.07;;
21360;SDS011;10839;43.206;23.550;2022-09-09T15:21:34;11.02;;;5.30;;
21360;SDS011;10839;43.206;23.550;2022-09-09T15:24:01;12.23;;;6.53;;
21360;SDS011;10839;43.206;23.550;2022-09-09T15:26:29;15.90;;;7.80;;
21360;SDS011;10839;43.206;23.550;2022-09-09T15:28:55;12.77;;;7.28;;
21360;SDS011;10839;43.206;23.550;2022-09-09T15:31:25;10.55;;;7.32;;
21360;SDS011;10839;43.206;23.550;2022-09-09T15:33:54;11.85;;;7.32;;
21360;SDS011;10839;43.206;23.550;2022-09-09T15:36:34;12.35;;;7.95;;
21360;SDS011;10839;43.206;23.550;2022-09-09T15:39:02;10.57;;;6.15;;
21360;SDS011;10839;43.206;23.550;2022-09-09T15:41:30;8.02;;;5.88;;
21360;SDS011;10839;43.206;23.550;2022-09-09T15:43:59;8.82;;;6.65;;
21360;SDS011;10839;43.206;23.550;2022-09-09T15:46:33;13.48;;;8.82;;
21360;SDS011;10839;43.206;23.550;2022-09-09T15:49:08;12.32;;;9.10;;
21360;SDS011;10839;43.206;23.550;2022-09-09T15:51:39;11.93;;;7.95;;
21360;SDS011;10839;43.206;23.550;2022-09-09T15:54:07;15.98;;;10.90;;
21360;SDS011;10839;43.206;23.550;2022-09-09T15:56:35;16.42;;;10.40;;
21360;SDS011;10839;43.206;23.550;2022-09-09T15:59:01;18.13;;;8.85;;
21360;SDS011;10839;43.206;23.550;2022-09-09T16:01:29;12.27;;;8.68;;
21360;SDS011;10839;43.206;23.550;2022-09-09T16:03:56;18.25;;;11.10;;
21360;SDS011;10839;43.206;23.550;2022-09-09T16:06:24;48.60;;;29.27;;
21360;SDS011;10839;43.206;23.550;2022-09-09T16:08:52;41.08;;;30.15;;
21360;SDS011;10839;43.206;23.550;2022-09-09T16:11:23;28.52;;;18.98;;
21360;SDS011;10839;43.206;23.550;2022-09-09T16:13:55;19.55;;;14.07;;
21360;SDS011;10839;43.206;23.550;2022-09-09T16:16:22;15.70;;;10.65;;
21360;SDS011;10839;43.206;23.550;2022-09-09T16:18:51;12.40;;;8.43;;
21360;SDS011;10839;43.206;23.550;2022-09-09T16:21:27;11.75;;;8.20;;
21360;SDS011;10839;43.206;23.550;2022-09-09T16:23:56;13.70;;;8.30;;
21360;SDS011;10839;43.206;23.550;2022-09-09T16:26:25;12.82;;;8.52;;
21360;SDS011;10839;43.206;23.550;2022-09-09T16:28:55;14.32;;;8.32;;
21360;SDS011;10839;43.206;23.550;2022-09-09T16:31:23;11.50;;;8.75;;
21360;SDS011;10839;43.206;23.550;2022-09-09T16:33:49;11.30;;;8.48;;
21360;SDS011;10839;43.206;23.550;2022-09-09T16:36:17;13.05;;;8.38;;
21360;SDS011;10839;43.206;23.550;2022-09-09T16:38:45;14.88;;;8.25;;
21360;SDS011;10839;43.206;23.550;2022-09-09T16:41:12;16.90;;;11.45;;
21360;SDS011;10839;43.206;23.550;2022-09-09T16:43:40;15.05;;;9.50;;
21360;SDS011;10839;43.206;23.550;2022-09-09T16:46:11;16.77;;;11.65;;
21360;SDS011;10839;43.206;23.550;2022-09-09T16:48:42;13.98;;;11.10;;
21360;SDS011;10839;43.206;23.550;2022-09-09T16:51:16;13.57;;;9.23;;
21360;SDS011;10839;43.206;23.550;2022-09-09T16:53:45;22.95;;;13.25;;
21360;SDS011;10839;43.206;23.550;2022-09-09T16:56:13;19.27;;;11.80;;
21360;SDS011;10839;43.206;23.550;2022-09-09T16:58:41;17.80;;;12.45;;
21360;SDS011;10839;43.206;23.550;2022-09-09T17:01:10;13.13;;;9.98;;
21360;SDS011;10839;43.206;23.550;2022-09-09T17:03:39;16.45;;;10.13;;
21360;SDS011;10839;43.206;23.550;2022-09-09T17:06:10;14.48;;;10.35;;
21360;SDS011;10839;43.206;23.550;2022-09-09T17:08:38;17.55;;;9.18;;
21360;SDS011;10839;43.206;23.550;2022-09-09T17:11:14;11.18;;;8.45;;